createdAt,value
2018-06-10T00:00:29.350Z,42.90
2018-06-10T00:02:58.205Z,42.90
2018-06-10T00:07:55.674Z,42.80
2018-06-10T00:10:24.539Z,42.90
2018-06-10T00:12:53.391Z,42.90
2018-06-10T00:15:22.255Z,42.90
2018-06-10T00:17:51.106Z,42.90
2018-06-10T00:20:19.975Z,42.90
2018-06-10T00:22:48.827Z,42.80
2018-06-10T00:25:17.681Z,42.80
2018-06-10T00:27:46.786Z,42.90
2018-06-10T00:30:15.646Z,42.80
2018-06-10T00:32:44.486Z,42.90
2018-06-10T00:35:13.350Z,42.90
2018-06-10T00:37:42.195Z,42.90
2018-06-10T00:40:11.054Z,42.90
2018-06-10T00:42:39.897Z,42.90
2018-06-10T00:45:08.761Z,42.90
2018-06-10T00:47:37.606Z,42.90
2018-06-10T00:52:35.049Z,42.90
2018-06-10T00:55:03.919Z,42.90
2018-06-10T00:57:32.754Z,42.90
2018-06-10T01:00:01.609Z,42.90
2018-06-10T01:02:30.453Z,42.90
2018-06-10T01:04:59.313Z,42.90
2018-06-10T01:07:28.182Z,43.00
2018-06-10T01:09:57.042Z,42.90
2018-06-10T01:12:25.897Z,43.00
2018-06-10T01:14:54.753Z,43.00
2018-06-10T01:17:23.601Z,43.00
2018-06-10T01:19:52.483Z,43.00
2018-06-10T01:22:21.377Z,43.00
2018-06-10T01:24:50.222Z,43.00
2018-06-10T01:27:19.085Z,43.10
2018-06-10T01:29:48.414Z,43.10
2018-06-10T01:32:17.269Z,43.00
2018-06-10T01:34:46.465Z,43.00
2018-06-10T01:37:15.330Z,43.10
2018-06-10T01:39:44.176Z,43.10
2018-06-10T01:42:13.040Z,43.00
2018-06-10T01:44:41.874Z,43.00
2018-06-10T01:47:10.775Z,43.10
2018-06-10T01:49:39.608Z,43.00
2018-06-10T01:52:08.438Z,43.10
2018-06-10T01:54:37.286Z,43.10
2018-06-10T01:57:06.146Z,43.10
2018-06-10T01:59:34.985Z,43.10
2018-06-10T02:02:04.261Z,43.20
2018-06-10T02:04:33.110Z,43.20
2018-06-10T02:07:01.987Z,43.20
2018-06-10T02:09:30.830Z,43.20
2018-06-10T02:11:59.691Z,43.80
2018-06-10T02:14:28.534Z,43.20
2018-06-10T02:16:57.398Z,43.20
2018-06-10T02:19:26.255Z,43.20
2018-06-10T02:21:55.125Z,43.20
2018-06-10T02:24:23.982Z,43.20
2018-06-10T02:26:52.837Z,43.30
2018-06-10T02:29:21.673Z,43.30
2018-06-10T02:31:50.535Z,43.30
2018-06-10T02:34:19.386Z,43.30
2018-06-10T02:39:17.122Z,43.30
2018-06-10T02:41:45.979Z,43.20
2018-06-10T02:44:14.826Z,43.30
2018-06-10T02:46:43.698Z,43.30
2018-06-10T02:49:12.534Z,43.30
2018-06-10T02:51:41.396Z,43.90
2018-06-10T02:54:10.238Z,43.30
2018-06-10T02:56:39.098Z,43.30
2018-06-10T03:01:36.530Z,43.30
2018-06-10T03:04:05.721Z,43.30
2018-06-10T03:06:34.594Z,43.30
2018-06-10T03:09:04.701Z,43.30
2018-06-10T03:11:33.750Z,43.30
2018-06-10T03:14:02.587Z,43.30
2018-06-10T03:16:31.450Z,43.30
2018-06-10T03:19:00.277Z,43.40
2018-06-10T03:21:29.137Z,43.40
2018-06-10T03:23:57.978Z,43.40
2018-06-10T03:26:26.809Z,43.40
2018-06-10T03:28:55.670Z,43.40
2018-06-10T03:31:24.514Z,43.40
2018-06-10T03:33:53.361Z,43.40
2018-06-10T03:36:22.203Z,43.40
2018-06-10T03:38:51.054Z,43.40
2018-06-10T03:43:48.477Z,43.40
2018-06-10T03:46:17.313Z,43.30
2018-06-10T03:48:46.162Z,43.40
2018-06-10T03:51:15.398Z,43.40
2018-06-10T03:56:12.754Z,43.50
2018-06-10T03:58:41.607Z,43.50
2018-06-10T04:01:10.446Z,43.50
2018-06-10T04:06:07.801Z,43.50
2018-06-10T04:08:36.674Z,43.50
2018-06-10T04:11:05.510Z,43.50
2018-06-10T04:13:34.370Z,43.40
2018-06-10T04:16:03.202Z,43.40
2018-06-10T04:18:32.054Z,43.40
2018-06-10T04:21:00.894Z,43.50
2018-06-10T04:23:29.741Z,43.50
2018-06-10T04:25:58.578Z,43.50
2018-06-10T04:28:27.430Z,44.00
2018-06-10T04:30:56.263Z,43.40
2018-06-10T04:33:25.116Z,43.40
2018-06-10T04:35:53.950Z,43.40
2018-06-10T04:38:22.806Z,43.40
2018-06-10T04:40:51.642Z,43.40
2018-06-10T04:43:20.494Z,43.40
2018-06-10T04:45:49.702Z,43.50
2018-06-10T04:48:18.574Z,43.50
2018-06-10T04:50:47.416Z,43.50
2018-06-10T04:53:16.266Z,43.50
2018-06-10T04:55:45.102Z,43.50
2018-06-10T04:58:13.957Z,43.40
2018-06-10T05:00:42.794Z,43.50
2018-06-10T05:03:11.646Z,43.40
2018-06-10T05:05:40.489Z,43.40
2018-06-10T05:08:09.362Z,43.40
2018-06-10T05:10:38.202Z,43.40
2018-06-10T05:13:07.062Z,43.40
2018-06-10T05:15:35.911Z,44.00
2018-06-10T05:18:04.774Z,43.40
2018-06-10T05:20:33.618Z,43.40
2018-06-10T05:25:30.981Z,43.40
2018-06-10T05:30:28.419Z,43.40
2018-06-10T05:32:57.262Z,43.40
2018-06-10T05:35:26.124Z,43.40
2018-06-10T05:37:54.957Z,43.40
2018-06-10T05:40:23.818Z,43.40
2018-06-10T05:42:52.666Z,43.40
2018-06-10T05:45:21.539Z,43.50
2018-06-10T05:47:50.774Z,43.50
2018-06-10T05:50:19.634Z,43.50
2018-06-10T05:52:48.993Z,43.50
2018-06-10T05:55:17.858Z,43.50
2018-06-10T05:57:46.714Z,43.50
2018-06-10T06:00:15.574Z,43.50
2018-06-10T06:02:44.418Z,43.50
2018-06-10T06:05:13.279Z,43.50
2018-06-10T06:07:42.132Z,43.50
2018-06-10T06:10:10.982Z,43.50
2018-06-10T06:12:39.824Z,43.50
2018-06-10T06:15:08.657Z,43.50
2018-06-10T06:17:37.514Z,43.50
2018-06-10T06:20:06.678Z,43.50
2018-06-10T06:25:04.051Z,43.50
2018-06-10T06:30:01.751Z,43.50
2018-06-10T06:32:30.602Z,43.50
2018-06-10T06:34:59.442Z,43.50
2018-06-10T06:37:28.294Z,43.50
2018-06-10T06:39:57.134Z,43.50
2018-06-10T06:42:25.998Z,43.50
2018-06-10T06:44:54.854Z,43.50
2018-06-10T06:47:23.714Z,43.50
2018-06-10T06:49:52.549Z,43.50
2018-06-10T06:52:21.418Z,43.50
2018-06-10T06:54:50.700Z,43.60
2018-06-10T06:57:19.557Z,43.60
2018-06-10T06:59:48.401Z,43.50
2018-06-10T07:02:17.254Z,43.50
2018-06-10T07:04:46.094Z,43.50
2018-06-10T07:09:43.473Z,43.50
2018-06-10T07:12:12.338Z,43.50
2018-06-10T07:14:41.190Z,43.50
2018-06-10T07:17:10.153Z,43.50
2018-06-10T07:19:38.990Z,43.50
2018-06-10T07:22:07.838Z,43.50
2018-06-10T07:24:36.705Z,43.50
2018-06-10T07:27:05.554Z,44.10
2018-06-10T07:29:34.422Z,43.50
2018-06-10T07:32:03.270Z,43.50
2018-06-10T07:34:32.130Z,43.50
2018-06-10T07:37:00.983Z,43.50
2018-06-10T07:39:29.870Z,43.50
2018-06-10T07:41:58.722Z,43.50
2018-06-10T07:44:27.574Z,43.50
2018-06-10T07:46:56.417Z,44.00
2018-06-10T07:49:25.287Z,43.50
2018-06-10T07:51:54.137Z,43.50
2018-06-10T07:54:22.997Z,43.50
2018-06-10T07:56:51.841Z,43.50
2018-06-10T07:59:20.702Z,43.50
2018-06-10T08:01:50.182Z,43.50
2018-06-10T08:04:19.041Z,43.60
2018-06-10T08:06:47.893Z,43.60
2018-06-10T08:09:16.753Z,43.60
2018-06-10T08:11:45.594Z,43.50
2018-06-10T08:14:14.446Z,43.50
2018-06-10T08:16:43.289Z,43.50
2018-06-10T08:19:12.150Z,43.60
2018-06-10T08:21:40.977Z,43.50
2018-06-10T08:24:09.830Z,43.60
2018-06-10T08:26:38.670Z,43.50
2018-06-10T08:29:07.526Z,43.50
2018-06-10T08:31:36.379Z,43.50
2018-06-10T08:34:05.241Z,43.60
2018-06-10T08:36:34.094Z,43.60
2018-06-10T08:39:04.576Z,43.50
2018-06-10T08:41:33.434Z,43.60
2018-06-10T08:46:30.878Z,43.50
2018-06-10T08:48:59.726Z,43.60
2018-06-10T08:51:28.586Z,43.50
2018-06-10T08:53:57.426Z,43.60
2018-06-10T08:56:26.282Z,43.50
2018-06-10T08:58:55.126Z,43.60
2018-06-10T09:01:24.171Z,43.60
2018-06-10T09:03:53.001Z,43.60
2018-06-10T09:06:21.862Z,43.60
2018-06-10T09:08:55.831Z,43.60
2018-06-10T09:11:24.605Z,43.60
2018-06-10T09:13:53.451Z,43.70
2018-06-10T09:16:22.306Z,43.60
2018-06-10T09:18:51.571Z,43.60
2018-06-10T09:21:20.434Z,43.60
2018-06-10T09:23:49.274Z,43.60
2018-06-10T09:26:18.337Z,43.60
2018-06-10T09:28:47.201Z,43.60
2018-06-10T09:31:16.071Z,43.60
2018-06-10T09:33:44.909Z,43.60
2018-06-10T09:36:13.779Z,43.60
2018-06-10T09:38:42.629Z,43.60
2018-06-10T09:41:11.498Z,43.60
2018-06-10T09:43:40.333Z,43.60
2018-06-10T09:46:09.173Z,43.70
2018-06-10T09:48:38.042Z,43.70
2018-06-10T09:51:06.882Z,43.70
2018-06-10T09:53:35.746Z,43.60
2018-06-10T09:56:04.622Z,43.60
2018-06-10T09:58:33.491Z,43.70
2018-06-10T10:01:02.360Z,43.70
2018-06-10T10:03:31.215Z,43.70
2018-06-10T10:06:00.063Z,43.70
2018-06-10T10:08:28.942Z,43.70
2018-06-10T10:10:57.790Z,43.70
2018-06-10T10:15:55.171Z,43.70
2018-06-10T10:20:53.142Z,43.70
2018-06-10T10:25:50.666Z,44.10
2018-06-10T10:28:19.544Z,43.70
2018-06-10T10:30:48.370Z,43.70
2018-06-10T10:33:17.224Z,43.70
2018-06-10T10:35:46.186Z,43.70
2018-06-10T10:40:43.537Z,43.60
2018-06-10T10:43:12.389Z,43.70
2018-06-10T10:45:41.225Z,43.70
2018-06-10T10:48:10.082Z,43.60
2018-06-10T10:50:38.917Z,43.60
2018-06-10T10:55:36.270Z,43.70
2018-06-10T10:58:05.161Z,43.60
2018-06-10T11:00:33.990Z,43.60
2018-06-10T11:03:02.837Z,43.60
2018-06-10T11:05:31.682Z,43.60
2018-06-10T11:08:00.550Z,43.70
2018-06-10T11:10:29.401Z,43.60
2018-06-10T11:12:58.263Z,43.70
2018-06-10T11:15:27.114Z,43.70
2018-06-10T11:17:55.978Z,44.80
2018-06-10T11:20:24.833Z,45.00
2018-06-10T11:22:54.078Z,45.50
2018-06-10T11:25:22.925Z,46.00
2018-06-10T11:27:51.842Z,46.50
2018-06-10T11:30:20.677Z,46.10
2018-06-10T11:32:56.348Z,45.30
2018-06-10T11:35:32.550Z,44.50
2018-06-10T11:38:11.692Z,43.60
2018-06-10T11:40:40.555Z,42.70
2018-06-10T11:43:09.489Z,42.10
2018-06-10T11:45:47.312Z,42.10
2018-06-10T11:48:16.178Z,41.40
2018-06-10T11:50:45.032Z,40.60
2018-06-10T11:53:13.903Z,41.10
2018-06-10T11:55:42.745Z,41.40
2018-06-10T11:58:11.621Z,41.60
2018-06-10T12:00:40.543Z,41.80
2018-06-10T12:03:09.385Z,42.00
2018-06-10T12:05:38.246Z,42.20
2018-06-10T12:08:07.120Z,42.30
2018-06-10T12:10:36.045Z,42.40
2018-06-10T12:13:04.849Z,42.50
2018-06-10T12:18:02.306Z,42.60
2018-06-10T12:20:31.185Z,42.60
2018-06-10T12:23:00.042Z,42.60
2018-06-10T12:25:28.909Z,42.60
2018-06-10T12:27:57.768Z,42.60
2018-06-10T12:30:26.639Z,42.60
2018-06-10T12:32:55.498Z,42.60
2018-06-10T12:35:24.371Z,42.60
2018-06-10T12:37:53.449Z,42.60
2018-06-10T12:40:22.317Z,42.60
2018-06-10T12:42:51.178Z,42.60
2018-06-10T12:45:20.058Z,42.60
2018-06-10T12:47:48.909Z,42.60
2018-06-10T12:52:46.365Z,42.60
2018-06-10T12:55:15.230Z,42.50
2018-06-10T12:57:44.077Z,42.60
2018-06-10T13:00:12.944Z,42.60
2018-06-10T13:02:41.798Z,42.60
2018-06-10T13:05:10.663Z,43.20
2018-06-10T13:07:39.522Z,42.60
2018-06-10T13:10:08.391Z,42.60
2018-06-10T13:12:37.237Z,42.70
2018-06-10T13:15:06.121Z,42.70
2018-06-10T13:17:34.970Z,42.70
2018-06-10T13:20:03.861Z,42.70
2018-06-10T13:22:32.701Z,43.20
2018-06-10T13:25:01.572Z,42.60
2018-06-10T13:27:30.426Z,42.70
2018-06-10T13:29:59.263Z,42.70
2018-06-10T13:32:28.068Z,42.60
2018-06-10T13:35:01.916Z,42.60
2018-06-10T13:37:31.261Z,42.60
2018-06-10T13:40:00.105Z,42.60
2018-06-10T13:42:28.909Z,42.60
2018-06-10T13:47:26.678Z,42.60
2018-06-10T13:49:55.530Z,42.70
2018-06-10T13:52:24.390Z,42.60
2018-06-10T13:54:53.205Z,42.60
2018-06-10T13:57:22.125Z,42.60
2018-06-10T13:59:50.938Z,42.60
2018-06-10T14:04:48.357Z,42.60
2018-06-10T14:07:17.312Z,42.60
2018-06-10T14:09:46.158Z,42.60
2018-06-10T14:12:14.981Z,42.60
2018-06-10T14:17:12.358Z,42.60
2018-06-10T14:22:09.781Z,42.50
2018-06-10T14:24:38.625Z,42.60
2018-06-10T14:27:08.457Z,42.60
2018-06-10T14:29:37.306Z,42.60
2018-06-10T14:34:40.394Z,43.10
2018-06-10T14:37:09.259Z,42.60
2018-06-10T14:39:38.094Z,42.60
2018-06-10T14:42:07.002Z,42.60
2018-06-10T14:44:35.810Z,42.60
2018-06-10T14:47:04.786Z,42.60
2018-06-10T14:49:33.742Z,42.60
2018-06-10T14:52:05.068Z,42.60
2018-06-10T14:54:33.877Z,42.60
2018-06-10T14:57:02.706Z,42.60
2018-06-10T14:59:31.542Z,42.60
2018-06-10T15:02:00.398Z,42.50
2018-06-10T15:04:29.252Z,42.50
2018-06-10T15:06:58.131Z,42.50
2018-06-10T15:09:27.849Z,42.50
2018-06-10T15:11:56.709Z,42.50
2018-06-10T15:14:25.714Z,42.50
2018-06-10T15:16:54.956Z,42.50
2018-06-10T15:19:23.795Z,42.40
2018-06-10T15:21:52.658Z,42.50
2018-06-10T15:24:21.493Z,42.40
2018-06-10T15:26:56.218Z,42.40
2018-06-10T15:29:25.045Z,42.50
2018-06-10T15:31:53.906Z,42.50
2018-06-10T15:34:22.721Z,42.40
2018-06-10T15:36:51.578Z,42.40
2018-06-10T15:39:20.393Z,42.50
2018-06-10T15:41:49.266Z,42.40
2018-06-10T15:44:18.076Z,42.40
2018-06-10T15:46:46.925Z,42.40
2018-06-10T15:49:21.449Z,42.40
2018-06-10T15:51:50.264Z,42.30
2018-06-10T15:54:19.131Z,42.40
2018-06-10T15:56:47.936Z,42.40
2018-06-10T15:59:23.595Z,42.40
2018-06-10T16:01:52.403Z,42.40
2018-06-10T16:04:21.261Z,42.40
2018-06-10T16:06:50.120Z,42.40
2018-06-10T16:09:18.999Z,42.40
2018-06-10T16:11:47.814Z,42.30
2018-06-10T16:14:16.645Z,42.30
2018-06-10T16:16:45.513Z,42.40
2018-06-10T16:19:14.316Z,42.40
2018-06-10T16:21:43.169Z,42.30
2018-06-10T16:24:12.037Z,42.30
2018-06-10T16:26:40.878Z,42.40
2018-06-10T16:31:38.242Z,42.40
2018-06-10T16:36:35.573Z,42.40
2018-06-10T16:39:08.461Z,42.30
2018-06-10T16:41:37.301Z,42.30
2018-06-10T16:44:06.132Z,42.30
2018-06-10T16:46:34.982Z,42.40
2018-06-10T16:49:03.862Z,42.30
2018-06-10T16:51:32.720Z,42.30
2018-06-10T16:54:01.575Z,42.30
2018-06-10T16:56:30.388Z,42.40
2018-06-10T16:58:59.254Z,42.30
2018-06-10T17:01:28.842Z,42.30
2018-06-10T17:03:59.727Z,42.30
2018-06-10T17:06:28.546Z,42.30
2018-06-10T17:08:57.426Z,42.30
2018-06-10T17:11:26.257Z,42.30
2018-06-10T17:13:55.980Z,42.30
2018-06-10T17:16:24.823Z,42.30
2018-06-10T17:18:53.675Z,42.80
2018-06-10T17:21:22.524Z,42.30
2018-06-10T17:23:51.409Z,42.30
2018-06-10T17:26:20.245Z,42.30
2018-06-10T17:28:49.105Z,42.30
2018-06-10T17:31:17.942Z,42.30
2018-06-10T17:33:46.785Z,42.30
2018-06-10T17:36:15.634Z,42.30
2018-06-10T17:38:44.466Z,42.80
2018-06-10T17:41:13.330Z,42.20
2018-06-10T17:43:42.180Z,42.20
2018-06-10T17:46:11.030Z,42.20
2018-06-10T17:48:39.865Z,42.20
2018-06-10T17:51:08.715Z,42.70
2018-06-10T17:53:37.578Z,41.60
2018-06-10T17:56:06.414Z,40.30
2018-06-10T17:58:35.261Z,40.40
2018-06-10T18:01:04.114Z,40.70
2018-06-10T18:03:32.950Z,40.90
2018-06-10T18:06:01.810Z,41.70
2018-06-10T18:10:59.241Z,41.30
2018-06-10T18:13:28.483Z,41.40
2018-06-10T18:18:25.918Z,41.50
2018-06-10T18:20:54.793Z,41.50
2018-06-10T18:23:24.206Z,41.60
2018-06-10T18:25:53.051Z,41.60
2018-06-10T18:28:21.885Z,41.50
2018-06-10T18:30:50.739Z,41.60
2018-06-10T18:33:19.583Z,41.60
2018-06-10T18:35:48.437Z,41.60
2018-06-10T18:38:17.278Z,42.10
2018-06-10T18:40:46.138Z,41.60
2018-06-10T18:43:14.969Z,41.70
2018-06-10T18:45:43.818Z,41.60
2018-06-10T18:48:12.674Z,41.60
2018-06-10T18:50:41.515Z,41.60
2018-06-10T18:53:10.412Z,41.60
2018-06-10T18:55:39.193Z,41.60
2018-06-10T18:58:08.050Z,41.60
2018-06-10T19:00:36.889Z,41.70
2018-06-10T19:03:13.502Z,41.60
2018-06-10T19:05:42.338Z,41.70
2018-06-10T19:08:11.221Z,41.70
2018-06-10T19:10:40.058Z,41.70
2018-06-10T19:13:09.449Z,41.70
2018-06-10T19:15:38.306Z,41.70
2018-06-10T19:18:07.142Z,41.70
2018-06-10T19:20:35.978Z,41.80
2018-06-10T19:23:04.850Z,41.70
2018-06-10T19:25:33.713Z,41.80
2018-06-10T19:28:02.578Z,41.60
2018-06-10T19:30:31.416Z,41.70
2018-06-10T19:33:00.269Z,41.70
2018-06-10T19:35:29.246Z,41.80
2018-06-10T19:37:58.115Z,41.70
2018-06-10T19:40:26.965Z,41.80
2018-06-10T19:42:55.806Z,41.80
2018-06-10T19:45:24.658Z,41.80
2018-06-10T19:47:53.506Z,41.80
2018-06-10T19:50:22.362Z,41.80
2018-06-10T19:52:51.201Z,41.80
2018-06-10T19:55:20.059Z,41.80
2018-06-10T19:57:48.925Z,41.80
2018-06-10T20:00:17.753Z,41.80
2018-06-10T20:02:46.606Z,41.80
2018-06-10T20:05:15.466Z,41.90
2018-06-10T20:07:44.325Z,41.90
2018-06-10T20:10:13.187Z,41.90
2018-06-10T20:12:42.025Z,41.90
2018-06-10T20:15:10.908Z,41.90
2018-06-10T20:17:39.746Z,41.90
2018-06-10T20:20:08.610Z,41.90
2018-06-10T20:22:37.471Z,41.90
2018-06-10T20:25:06.354Z,41.90
2018-06-10T20:27:35.206Z,41.90
2018-06-10T20:30:04.774Z,41.80
2018-06-10T20:32:33.563Z,41.90
2018-06-10T20:35:02.411Z,41.80
2018-06-10T20:37:31.248Z,41.80
2018-06-10T20:40:00.092Z,41.90
2018-06-10T20:42:28.953Z,41.90
2018-06-10T20:44:57.802Z,41.90
2018-06-10T20:47:26.662Z,41.90
2018-06-10T20:49:55.510Z,41.90
2018-06-10T20:52:24.374Z,41.90
2018-06-10T20:54:53.226Z,41.80
2018-06-10T20:59:50.713Z,41.80
2018-06-10T21:02:19.590Z,41.80
2018-06-10T21:04:48.434Z,41.90
2018-06-10T21:07:17.310Z,41.90
2018-06-10T21:09:46.153Z,41.90
2018-06-10T21:12:15.001Z,41.90
2018-06-10T21:14:43.840Z,41.90
2018-06-10T21:17:12.704Z,41.90
2018-06-10T21:19:41.565Z,41.80
2018-06-10T21:22:10.439Z,41.90
2018-06-10T21:24:39.268Z,41.80
2018-06-10T21:27:08.135Z,41.80
2018-06-10T21:29:36.994Z,41.80
2018-06-10T21:32:05.846Z,41.80
2018-06-10T21:34:34.707Z,41.90
2018-06-10T21:37:03.854Z,41.90
2018-06-10T21:39:32.714Z,41.80
2018-06-10T21:42:01.577Z,41.80
2018-06-10T21:44:30.542Z,41.80
2018-06-10T21:46:59.387Z,41.80
2018-06-10T21:49:28.243Z,41.80
2018-06-10T21:51:57.077Z,41.80
2018-06-10T21:54:25.955Z,41.80
2018-06-10T21:56:54.794Z,41.80
2018-06-10T21:59:23.654Z,41.80
2018-06-10T22:04:21.015Z,41.80
2018-06-10T22:06:49.856Z,41.90
2018-06-10T22:09:18.726Z,41.80
2018-06-10T22:11:47.571Z,41.80
2018-06-10T22:14:16.433Z,41.80
2018-06-10T22:16:45.279Z,41.90
2018-06-10T22:19:14.289Z,41.90
2018-06-10T22:21:43.135Z,41.90
2018-06-10T22:24:11.993Z,41.90
2018-06-10T22:26:40.842Z,41.90
2018-06-10T22:29:09.698Z,41.90
2018-06-10T22:31:38.545Z,41.90
2018-06-10T22:34:07.377Z,41.90
2018-06-10T22:36:36.225Z,41.90
2018-06-10T22:39:07.345Z,41.90
2018-06-10T22:41:36.246Z,41.90
2018-06-10T22:44:05.606Z,41.90
2018-06-10T22:46:34.462Z,41.90
2018-06-10T22:49:08.745Z,41.90
2018-06-10T22:51:37.590Z,41.90
2018-06-10T22:54:17.662Z,41.90
2018-06-10T22:56:46.522Z,42.00
2018-06-10T22:59:15.358Z,42.00
2018-06-10T23:01:44.222Z,41.90
2018-06-10T23:04:13.075Z,42.00
2018-06-10T23:06:41.930Z,41.90
2018-06-10T23:09:10.782Z,41.90
2018-06-10T23:11:39.640Z,41.90
2018-06-10T23:14:08.478Z,41.90
2018-06-10T23:16:37.334Z,41.90
2018-06-10T23:19:06.174Z,42.00
2018-06-10T23:24:04.179Z,42.00
2018-06-10T23:26:33.043Z,42.00
2018-06-10T23:29:01.874Z,42.00
2018-06-10T23:31:30.725Z,42.00
2018-06-10T23:33:59.567Z,42.50
2018-06-10T23:36:28.418Z,41.90
2018-06-10T23:38:57.262Z,41.90
2018-06-10T23:41:26.126Z,41.90
2018-06-10T23:43:54.979Z,42.00
2018-06-10T23:46:23.834Z,42.00
2018-06-10T23:48:52.679Z,42.00
2018-06-10T23:51:21.525Z,41.90
2018-06-10T23:53:50.366Z,41.90
2018-06-10T23:56:19.222Z,41.90
